Time;durP1;ratioP1;P1;durP2;ratioP2;P2;SDS_P1;SDS_P2;PMS_P1;PMS_P2;Temp;Humidity;BMP_temperature;BMP_pressure;BME280_temperature;BME280_humidity;BME280_pressure;Samples;Min_cycle;Max_cycle;Signal;HPM_P1;HPM_P2
2021/09/03 00:00:17;;;;;;;48.92;35.85;;;;;;;13.65;100.00;100827.16;5014429;28;20053;-68
2021/09/03 00:02:45;;;;;;;48.63;34.33;;;;;;;13.61;100.00;100829.19;5015621;28;20136;-69
2021/09/03 00:05:17;;;;;;;47.85;34.55;;;;;;;13.53;100.00;100810.91;5015486;28;20061;-69
2021/09/03 00:07:45;;;;;;;50.75;34.53;;;;;;;13.55;100.00;100816.16;5014494;28;20045;-69
2021/09/03 00:10:15;;;;;;;49.03;33.97;;;;;;;13.51;100.00;100817.34;5015409;28;20387;-69
2021/09/03 00:12:42;;;;;;;51.85;33.55;;;;;;;13.49;100.00;100819.22;5030734;28;20096;-69
2021/09/03 00:15:12;;;;;;;53.70;35.22;;;;;;;13.47;100.00;100805.06;5014382;28;20050;-68
2021/09/03 00:17:40;;;;;;;49.70;35.97;;;;;;;13.38;100.00;100804.66;5015451;28;20048;-68
2021/09/03 00:20:09;;;;;;;51.83;36.75;;;;;;;13.29;100.00;100802.56;5015294;28;20080;-69
2021/09/03 00:22:36;;;;;;;52.42;37.85;;;;;;;13.37;100.00;100813.66;5015207;28;20061;-69
2021/09/03 00:25:04;;;;;;;50.15;36.17;;;;;;;13.38;100.00;100801.09;5030624;28;20042;-69
2021/09/03 00:27:32;;;;;;;56.47;39.70;;;;;;;13.33;100.00;100811.28;4998090;28;20068;-69
2021/09/03 00:29:59;;;;;;;54.05;35.80;;;;;;;13.28;100.00;100807.06;5018253;28;20440;-69
2021/09/03 00:32:26;;;;;;;51.38;33.88;;;;;;;13.23;100.00;100786.84;5019463;28;20050;-68
2021/09/03 00:34:53;;;;;;;51.95;35.20;;;;;;;13.28;100.00;100798.13;5019751;28;20443;-69
2021/09/03 00:37:20;;;;;;;48.42;34.83;;;;;;;13.27;100.00;100799.09;5019215;28;20366;-70
2021/09/03 00:39:46;;;;;;;50.20;34.90;;;;;;;13.24;100.00;100797.47;5019216;28;20045;-70
2021/09/03 00:42:15;;;;;;;47.08;34.20;;;;;;;13.18;100.00;100793.34;5019066;28;20050;-68
2021/09/03 00:44:42;;;;;;;46.22;34.55;;;;;;;13.20;100.00;100795.06;5019094;28;20061;-69
2021/09/03 00:47:09;;;;;;;46.92;34.92;;;;;;;13.16;100.00;100791.72;5018974;28;20089;-68
2021/09/03 00:49:36;;;;;;;49.08;33.92;;;;;;;13.16;100.00;100791.72;5018065;28;20045;-68
2021/09/03 00:52:05;;;;;;;49.20;33.03;;;;;;;13.13;100.00;100787.41;5018977;28;20046;-69
2021/09/03 00:54:32;;;;;;;49.40;33.65;;;;;;;13.10;100.00;100776.91;5019083;28;20050;-68
2021/09/03 00:56:59;;;;;;;48.25;34.53;;;;;;;13.04;100.00;100777.28;5017690;28;20054;-67
2021/09/03 00:59:26;;;;;;;51.15;35.17;;;;;;;13.00;100.00;100776.59;5019025;28;20052;-68
2021/09/03 01:01:53;;;;;;;51.20;34.38;;;;;;;13.06;100.00;100774.50;5017591;28;20069;-68
2021/09/03 01:04:21;;;;;;;49.08;33.50;;;;;;;12.98;100.00;100764.25;5018771;28;20435;-68
2021/09/03 01:06:48;;;;;;;53.63;35.97;;;;;;;13.02;100.00;100774.69;5017719;28;20049;-68
2021/09/03 01:09:15;;;;;;;48.42;33.28;;;;;;;12.95;100.00;100767.09;5018616;28;20050;-69
2021/09/03 01:11:42;;;;;;;47.80;33.60;;;;;;;12.90;100.00;100768.25;5017485;28;20447;-69
2021/09/03 01:14:09;;;;;;;50.63;35.40;;;;;;;12.88;100.00;100761.28;5018642;28;20054;-69
2021/09/03 01:16:36;;;;;;;55.50;39.15;;;;;;;12.91;100.00;100769.09;5018419;28;20049;-68
2021/09/03 01:19:02;;;;;;;52.92;37.70;;;;;;;12.87;100.00;100763.06;5017075;28;20065;-70
2021/09/03 01:21:29;;;;;;;54.22;37.50;;;;;;;12.92;100.00;100757.47;5032758;28;20134;-69
2021/09/03 01:23:56;;;;;;;62.13;39.10;;;;;;;12.93;100.00;100755.63;5018279;28;20494;-69
2021/09/03 01:26:25;;;;;;;54.80;37.47;;;;;;;12.90;100.00;100759.34;5018233;28;20332;-68
2021/09/03 01:28:52;;;;;;;52.42;37.03;;;;;;;12.85;100.00;100754.28;5018109;28;20467;-69
2021/09/03 01:31:19;;;;;;;55.45;35.72;;;;;;;12.86;100.00;100753.31;5018285;28;20045;-68
2021/09/03 01:33:47;;;;;;;54.95;36.95;;;;;;;12.84;100.00;100751.69;5017180;28;20141;-68
2021/09/03 01:36:14;;;;;;;54.47;37.75;;;;;;;12.85;100.00;100745.41;5018203;28;20394;-68
2021/09/03 01:38:42;;;;;;;51.95;38.28;;;;;;;12.84;100.00;100743.66;5017016;28;20107;-68
2021/09/03 01:41:10;;;;;;;54.70;37.20;;;;;;;12.81;100.00;100744.69;5017151;28;20050;-69
2021/09/03 01:43:37;;;;;;;48.53;36.38;;;;;;;12.82;100.00;100748.25;5018033;28;20435;-69
2021/09/03 01:46:07;;;;;;;53.42;36.78;;;;;;;12.80;100.00;100739.44;5017912;28;20665;-69
2021/09/03 01:48:33;;;;;;;50.67;35.00;;;;;;;12.84;100.00;100739.16;5017926;28;20069;-69
2021/09/03 01:51:01;;;;;;;49.17;33.95;;;;;;;12.81;100.00;100739.34;5016860;28;20140;-69
2021/09/03 01:53:27;;;;;;;54.80;35.83;;;;;;;12.71;100.00;100736.38;5017783;28;20129;-69
2021/09/03 01:55:54;;;;;;;51.50;34.60;;;;;;;12.74;100.00;100740.66;5018177;28;20108;-68
2021/09/03 01:58:21;;;;;;;49.38;34.10;;;;;;;12.76;100.00;100742.31;5017720;28;20046;-69
2021/09/03 02:00:48;;;;;;;51.15;36.60;;;;;;;12.67;100.00;100733.97;5017777;28;20428;-69
2021/09/03 02:03:16;;;;;;;48.30;34.22;;;;;;;12.62;100.00;100744.97;5016526;28;20049;-70
2021/09/03 02:05:43;;;;;;;49.53;36.33;;;;;;;12.62;100.00;100742.28;5016797;28;20383;-70
2021/09/03 02:08:10;;;;;;;51.90;35.63;;;;;;;12.62;100.00;100742.28;5017581;28;20042;-69
2021/09/03 02:10:37;;;;;;;51.40;34.60;;;;;;;12.61;100.00;100741.44;5017589;28;20489;-67
2021/09/03 02:13:04;;;;;;;48.40;33.75;;;;;;;12.57;100.00;100731.84;5016489;28;20116;-68
2021/09/03 02:15:30;;;;;;;52.15;35.13;;;;;;;12.63;100.00;100736.84;5017473;28;20454;-68
2021/09/03 02:17:57;;;;;;;50.35;35.00;;;;;;;12.63;100.00;100738.66;5016174;28;20046;-69
2021/09/03 02:20:24;;;;;;;49.92;34.53;;;;;;;12.61;100.00;100738.75;5032601;28;20058;-68
2021/09/03 02:22:51;;;;;;;49.13;33.42;;;;;;;12.63;100.00;100733.28;5017168;28;20049;-69
2021/09/03 02:25:17;;;;;;;47.65;34.13;;;;;;;12.62;100.00;100736.94;5017270;28;20042;-69
2021/09/03 02:27:44;;;;;;;49.45;33.85;;;;;;;12.59;100.00;100729.94;5017192;28;20099;-68
2021/09/03 02:30:12;;;;;;;47.72;33.42;;;;;;;12.58;100.00;100727.38;5016050;28;20414;-68
2021/09/03 02:32:38;;;;;;;52.47;34.28;;;;;;;12.56;100.00;100726.59;5016979;28;20057;-69
2021/09/03 02:35:06;;;;;;;47.28;33.00;;;;;;;12.54;100.00;100729.38;5016061;28;20490;-68
2021/09/03 02:37:33;;;;;;;46.15;32.63;;;;;;;12.53;100.00;100721.44;5016890;28;20068;-68
2021/09/03 02:40:01;;;;;;;50.92;35.40;;;;;;;12.53;100.00;100724.94;5016991;28;20041;-68
2021/09/03 02:42:27;;;;;;;47.53;33.08;;;;;;;12.55;100.00;100720.38;5015868;28;20398;-68
2021/09/03 02:44:54;;;;;;;48.00;33.47;;;;;;;12.60;100.00;100720.09;5016917;28;20046;-68
2021/09/03 02:47:21;;;;;;;50.15;33.70;;;;;;;12.60;100.00;100718.25;5016887;28;20042;-68
2021/09/03 02:49:48;;;;;;;53.28;35.38;;;;;;;12.62;100.00;100720.84;5015995;28;20054;-68
2021/09/03 02:52:15;;;;;;;51.75;33.42;;;;;;;12.60;100.00;100714.75;5016584;28;20046;-67
2021/09/03 02:54:41;;;;;;;49.13;32.45;;;;;;;12.63;100.00;100709.19;5017227;28;20351;-67
2021/09/03 02:57:09;;;;;;;53.65;34.85;;;;;;;12.68;100.00;100704.41;5016249;28;20050;-68
2021/09/03 02:59:35;;;;;;;53.78;34.75;;;;;;;12.68;100.00;100706.25;5016653;28;20099;-67
2021/09/03 03:02:02;;;;;;;47.97;33.00;;;;;;;12.70;100.00;100698.97;5016641;28;20410;-68
2021/09/03 03:04:30;;;;;;;51.05;33.08;;;;;;;12.70;100.00;100707.00;5015434;28;20050;-69
2021/09/03 03:06:56;;;;;;;46.03;31.73;;;;;;;12.72;100.00;100710.44;5016421;28;20042;-68
2021/09/03 03:09:23;;;;;;;51.03;32.85;;;;;;;12.71;100.00;100701.56;5015310;28;20061;-68
2021/09/03 03:11:50;;;;;;;52.45;33.28;;;;;;;12.70;100.00;100697.13;5016699;28;20050;-69
2021/09/03 03:14:27;;;;;;;55.72;35.88;;;;;;;12.78;100.00;100694.00;5011864;28;20042;-69
2021/09/03 03:16:55;;;;;;;55.03;33.80;;;;;;;12.77;100.00;100689.59;4996660;28;20054;-69
2021/09/03 03:19:23;;;;;;;54.05;34.38;;;;;;;12.75;100.00;100686.16;4996401;28;20069;-68
2021/09/03 03:21:51;;;;;;;55.88;35.45;;;;;;;12.82;100.00;100682.16;5019090;28;20321;-68
2021/09/03 03:24:18;;;;;;;54.05;34.58;;;;;;;12.79;100.00;100668.94;5016127;28;20045;-69
2021/09/03 03:26:45;;;;;;;55.85;35.05;;;;;;;12.79;100.00;100671.63;5016191;28;20046;-68
2021/09/03 03:29:12;;;;;;;51.17;35.03;;;;;;;12.77;100.00;100674.38;5016056;28;20053;-68
2021/09/03 03:31:39;;;;;;;61.80;36.40;;;;;;;12.78;100.00;100669.91;5015000;28;20045;-68
2021/09/03 03:34:07;;;;;;;51.55;32.28;;;;;;;12.71;100.00;100664.06;5015978;28;20100;-68
2021/09/03 03:36:33;;;;;;;50.72;33.10;;;;;;;12.85;100.00;100676.59;5015853;28;20523;-69
2021/09/03 03:39:00;;;;;;;55.45;34.33;;;;;;;12.85;100.00;100670.38;5014694;28;20046;-69
2021/09/03 03:41:27;;;;;;;55.08;33.17;;;;;;;12.81;100.00;100675.06;5015867;28;20046;-68
2021/09/03 03:43:54;;;;;;;51.53;31.75;;;;;;;12.79;100.00;100674.28;5014691;28;20133;-68
2021/09/03 03:46:20;;;;;;;42.83;29.17;;;;;;;12.70;100.00;100658.81;5014773;28;20502;-68
2021/09/03 03:48:47;;;;;;;42.55;28.67;;;;;;;12.76;100.00;100675.34;5014699;28;20041;-69
2021/09/03 03:51:15;;;;;;;45.47;27.88;;;;;;;12.80;100.00;100662.63;5015743;28;20073;-69
2021/09/03 03:53:42;;;;;;;45.00;28.33;;;;;;;12.86;100.00;100656.88;5015713;28;20049;-68
2021/09/03 03:56:09;;;;;;;45.28;27.40;;;;;;;12.91;100.00;100659.25;5014730;28;20343;-69
2021/09/03 03:58:35;;;;;;;47.95;28.85;;;;;;;12.97;100.00;100652.69;5015437;28;20462;-68
2021/09/03 04:01:04;;;;;;;51.17;29.30;;;;;;;12.96;100.00;100649.13;5015522;28;20461;-68
2021/09/03 04:03:31;;;;;;;49.08;28.27;;;;;;;13.00;100.00;100653.34;5014848;28;20042;-70
2021/09/03 04:05:58;;;;;;;38.33;27.80;;;;;;;13.08;100.00;100649.31;5015343;28;20053;-68
2021/09/03 04:08:25;;;;;;;41.08;27.10;;;;;;;13.06;100.00;100657.44;5014460;28;20034;-67
2021/09/03 04:10:52;;;;;;;36.50;25.55;;;;;;;13.07;100.00;100648.44;5015429;28;20046;-67
2021/09/03 04:13:19;;;;;;;34.00;24.77;;;;;;;13.06;100.00;100648.56;5000281;28;20497;-67
2021/09/03 04:15:46;;;;;;;36.83;25.17;;;;;;;13.05;100.00;100650.38;5015434;28;20056;-71
2021/09/03 04:18:13;;;;;;;34.08;23.40;;;;;;;12.95;100.00;100643.84;5015185;28;20523;-67
2021/09/03 04:20:40;;;;;;;37.55;23.67;;;;;;;12.93;100.00;100648.47;5015422;28;20049;-67
2021/09/03 04:23:09;;;;;;;34.08;24.30;;;;;;;12.90;100.00;100652.19;5015387;28;20054;-68
2021/09/03 04:25:36;;;;;;;37.60;25.17;;;;;;;12.87;100.00;100650.56;4998249;28;20050;-68
2021/09/03 04:28:03;;;;;;;34.60;24.67;;;;;;;12.82;100.00;100641.09;5015351;28;20096;-69
2021/09/03 04:30:30;;;;;;;42.28;27.25;;;;;;;12.84;100.00;100644.53;5015204;28;20042;-68
2021/09/03 04:32:57;;;;;;;38.70;25.15;;;;;;;12.86;100.00;100646.16;5015256;28;20073;-68
2021/09/03 04:35:25;;;;;;;43.45;26.75;;;;;;;12.86;100.00;100646.16;5015143;28;20127;-68
2021/09/03 04:37:52;;;;;;;38.15;24.50;;;;;;;12.83;100.00;100650.84;5015163;28;20336;-68
2021/09/03 04:40:20;;;;;;;36.05;24.70;;;;;;;12.84;100.00;100648.09;5015506;28;20050;-67
2021/09/03 04:42:47;;;;;;;37.45;25.27;;;;;;;12.89;100.00;100651.34;5014108;28;20061;-68
2021/09/03 04:45:15;;;;;;;36.78;24.70;;;;;;;12.90;100.00;100646.81;5014003;28;20046;-68
2021/09/03 04:47:42;;;;;;;33.75;23.30;;;;;;;12.89;100.00;100643.31;5014109;28;20065;-68
2021/09/03 04:50:11;;;;;;;31.60;22.58;;;;;;;12.88;100.00;100638.91;5014056;28;20046;-68
2021/09/03 04:52:38;;;;;;;42.15;23.02;;;;;;;12.93;100.00;100646.66;5014073;28;20383;-68
2021/09/03 04:55:05;;;;;;;32.05;22.92;;;;;;;12.85;100.00;100640.94;5014986;28;20050;-68
2021/09/03 04:57:41;;;;;;;33.90;22.75;;;;;;;12.84;100.00;100632.00;5014869;28;20042;-68
2021/09/03 05:00:10;;;;;;;35.85;22.77;;;;;;;12.86;100.00;100640.81;5015155;28;20069;-69
2021/09/03 05:02:37;;;;;;;34.15;22.25;;;;;;;12.89;100.00;100645.09;5014917;28;20423;-68
2021/09/03 05:05:05;;;;;;;31.42;23.50;;;;;;;12.89;100.00;100637.94;5013925;28;20545;-69
2021/09/03 05:07:33;;;;;;;33.33;21.42;;;;;;;12.85;100.00;100639.09;5013745;28;20049;-69
2021/09/03 05:09:59;;;;;;;33.95;22.42;;;;;;;12.91;100.00;100637.81;5014872;28;20101;-69
2021/09/03 05:12:27;;;;;;;33.30;21.38;;;;;;;12.88;100.00;100638.91;5014865;28;20049;-69
2021/09/03 05:14:54;;;;;;;31.92;22.13;;;;;;;12.84;100.00;100629.34;5015214;28;20038;-68
2021/09/03 05:17:21;;;;;;;32.00;22.02;;;;;;;12.77;100.00;100614.59;5017941;28;20048;-68
2021/09/03 05:19:48;;;;;;;35.25;21.50;;;;;;;12.79;100.00;100612.69;5018399;28;20058;-69
2021/09/03 05:22:16;;;;;;;28.75;20.98;;;;;;;12.93;100.00;100624.34;5018406;28;20324;-69
2021/09/03 05:24:43;;;;;;;33.08;21.08;;;;;;;12.84;100.00;100615.06;5018338;28;20108;-68
2021/09/03 05:27:10;;;;;;;34.95;21.25;;;;;;;12.89;100.00;100637.06;5018324;28;20080;-69
2021/09/03 05:29:36;;;;;;;30.80;22.15;;;;;;;12.86;100.00;100638.13;5033670;28;20383;-69
2021/09/03 05:32:03;;;;;;;27.55;19.92;;;;;;;12.82;100.00;100638.41;5018090;28;20046;-69
2021/09/03 05:34:30;;;;;;;28.15;19.70;;;;;;;12.80;100.00;100633.16;5018230;28;20046;-69
2021/09/03 05:36:57;;;;;;;32.00;20.35;;;;;;;12.84;100.00;100648.09;5017829;28;20049;-69
2021/09/03 05:39:24;;;;;;;25.88;18.92;;;;;;;12.87;100.00;100653.22;5018103;28;20050;-69
2021/09/03 05:41:51;;;;;;;30.00;18.10;;;;;;;12.93;100.00;100656.50;5017743;28;20046;-69
2021/09/03 05:44:17;;;;;;;29.20;19.23;;;;;;;12.93;100.00;100656.50;5018083;28;20034;-68
2021/09/03 05:46:44;;;;;;;25.55;18.80;;;;;;;13.02;100.00;100653.25;5016692;28;20127;-69
2021/09/03 05:49:11;;;;;;;23.65;17.63;;;;;;;13.08;100.00;100652.00;5016824;28;20042;-68
2021/09/03 05:51:38;;;;;;;27.05;17.40;;;;;;;13.13;100.00;100648.03;5017821;28;20513;-68
2021/09/03 05:54:08;;;;;;;26.33;17.58;;;;;;;13.16;100.00;100652.34;5017837;28;20041;-68
2021/09/03 05:56:37;;;;;;;23.23;16.65;;;;;;;13.17;100.00;100644.22;5018055;28;20043;-68
2021/09/03 05:59:05;;;;;;;24.60;16.00;;;;;;;13.17;100.00;100629.94;5017734;28;20451;-68
2021/09/03 06:01:32;;;;;;;27.95;16.17;;;;;;;13.27;100.00;100630.22;5016617;28;20065;-68
2021/09/03 06:03:59;;;;;;;24.17;14.82;;;;;;;13.34;100.00;100641.41;5017830;28;20049;-68
2021/09/03 06:06:26;;;;;;;19.15;14.25;;;;;;;13.36;100.00;100632.31;5016317;28;20350;-68
2021/09/03 06:08:53;;;;;;;19.23;14.25;;;;;;;13.48;100.00;100640.53;5017708;28;20428;-69
2021/09/03 06:11:24;;;;;;;19.38;14.00;;;;;;;13.61;100.00;100641.44;5017454;28;20050;-69
2021/09/03 06:13:52;;;;;;;23.67;13.98;;;;;;;13.66;100.00;100639.31;5017570;28;20096;-68
2021/09/03 06:16:20;;;;;;;19.73;13.80;;;;;;;13.69;100.00;100646.31;5017363;28;20100;-69
2021/09/03 06:18:47;;;;;;;22.00;13.32;;;;;;;13.76;100.00;100636.88;5016493;28;20046;-68
2021/09/03 06:21:15;;;;;;;18.77;14.20;;;;;;;13.82;100.00;100632.91;5014795;28;20400;-68
2021/09/03 06:23:42;;;;;;;20.42;13.68;;;;;;;13.87;100.00;100630.78;4997100;28;20356;-68
2021/09/03 06:26:09;;;;;;;19.23;13.48;;;;;;;13.88;100.00;100637.03;5012302;28;20324;-69
2021/09/03 06:28:36;;;;;;;19.50;13.60;;;;;;;13.92;100.00;100633.16;4996003;28;20096;-68
2021/09/03 06:31:03;;;;;;;22.75;13.60;;;;;;;13.99;100.00;100635.34;4997038;28;20057;-68
2021/09/03 06:33:30;;;;;;;18.98;11.85;;;;;;;14.08;100.00;100644.59;5006754;28;20450;-68
2021/09/03 06:35:57;;;;;;;22.80;12.90;;;;;;;14.02;100.00;100606.56;5015495;28;20133;-69
2021/09/03 06:38:25;;;;;;;17.85;11.95;;;;;;;14.20;100.00;100634.81;5010371;28;20113;-73
2021/09/03 06:40:52;;;;;;;17.42;11.88;;;;;;;14.25;100.00;100639.88;5013206;28;20037;-68
2021/09/03 06:43:19;;;;;;;26.42;13.38;;;;;;;14.30;100.00;100643.09;4998388;28;20046;-69
2021/09/03 06:45:46;;;;;;;16.95;11.75;;;;;;;14.37;99.82;100643.53;5011912;28;20428;-68
2021/09/03 06:48:13;;;;;;;19.83;12.32;;;;;;;14.32;100.00;100629.59;5015537;28;20045;-72
2021/09/03 06:50:40;;;;;;;23.67;12.88;;;;;;;14.34;100.00;100638.38;5013037;28;20057;-69
2021/09/03 06:53:07;;;;;;;17.65;11.65;;;;;;;14.40;100.00;100637.97;5013225;28;20037;-68
2021/09/03 06:55:33;;;;;;;19.52;12.10;;;;;;;14.48;100.00;100640.09;5015647;28;20046;-70
2021/09/03 06:58:00;;;;;;;21.92;12.57;;;;;;;14.58;100.00;100645.69;5014451;28;20342;-68
2021/09/03 07:00:27;;;;;;;21.70;12.05;;;;;;;14.65;100.00;100644.28;5012724;28;20057;-68
2021/09/03 07:02:54;;;;;;;18.10;12.10;;;;;;;14.61;100.00;100642.78;5008072;28;20428;-68
2021/09/03 07:05:23;;;;;;;19.65;11.32;;;;;;;14.65;100.00;100646.97;5012120;28;20052;-68
2021/09/03 07:07:50;;;;;;;17.92;11.10;;;;;;;14.77;100.00;100635.38;5005724;28;20054;-68
2021/09/03 07:10:17;;;;;;;16.85;11.45;;;;;;;14.92;99.30;100643.31;5006287;28;20038;-68
2021/09/03 07:12:44;;;;;;;16.38;10.93;;;;;;;14.94;99.90;100641.41;5007070;28;20049;-69
2021/09/03 07:15:12;;;;;;;14.35;10.35;;;;;;;15.02;99.59;100635.44;4994837;28;20077;-67
2021/09/03 07:17:39;;;;;;;13.07;10.00;;;;;;;15.14;97.46;100639.94;5007105;28;20443;-67
2021/09/03 07:20:07;;;;;;;16.80;10.27;;;;;;;15.24;98.05;100642.81;5007232;28;20046;-68
2021/09/03 07:22:33;;;;;;;17.75;10.07;;;;;;;15.28;96.84;100638.94;5005724;28;20326;-68
2021/09/03 07:25:01;;;;;;;16.30;9.93;;;;;;;15.36;96.43;100643.72;5005675;28;20232;-68
2021/09/03 07:27:29;;;;;;;14.55;8.77;;;;;;;15.37;95.35;100615.03;5004997;28;20042;-76
2021/09/03 07:29:55;;;;;;;12.93;9.38;;;;;;;15.54;96.12;100641.53;5006605;28;20052;-69
2021/09/03 07:32:22;;;;;;;11.85;9.23;;;;;;;15.68;94.95;100639.66;5004774;28;20049;-70
2021/09/03 07:34:49;;;;;;;12.60;8.82;;;;;;;15.84;93.80;100634.81;5011952;28;20111;-70
2021/09/03 07:37:16;;;;;;;18.38;10.45;;;;;;;15.94;92.58;100639.53;5003588;28;20062;-70
2021/09/03 07:39:43;;;;;;;14.50;9.13;;;;;;;15.98;93.07;100641.00;4998587;28;20050;-69
2021/09/03 07:42:11;;;;;;;12.15;7.95;;;;;;;15.91;94.35;100643.25;5000525;28;20073;-70
2021/09/03 07:44:37;;;;;;;12.18;8.02;;;;;;;15.86;94.84;100626.63;5004968;28;20046;-69
2021/09/03 07:47:04;;;;;;;10.68;8.30;;;;;;;16.13;91.88;100631.75;5012476;28;20034;-72
2021/09/03 07:49:31;;;;;;;13.38;8.50;;;;;;;16.16;92.44;100627.97;5023500;28;20042;-69
2021/09/03 07:51:58;;;;;;;13.05;8.50;;;;;;;16.30;91.31;100635.00;5013809;28;20050;-70
2021/09/03 07:54:25;;;;;;;13.85;8.88;;;;;;;16.13;92.81;100604.81;5011910;28;20042;-69
2021/09/03 07:56:52;;;;;;;12.38;8.52;;;;;;;16.31;93.42;100633.13;5013526;28;20403;-68
2021/09/03 07:59:19;;;;;;;14.63;8.95;;;;;;;16.51;91.81;100626.19;5015013;28;20034;-69
2021/09/03 08:01:46;;;;;;;16.58;9.05;;;;;;;16.68;89.63;100628.41;5015157;28;20498;-68
2021/09/03 08:04:14;;;;;;;16.63;9.25;;;;;;;16.70;90.00;100629.16;5014104;28;20146;-70
2021/09/03 08:06:41;;;;;;;10.70;8.00;;;;;;;16.51;90.44;100593.88;5030390;28;20405;-69
2021/09/03 08:09:08;;;;;;;12.15;9.13;;;;;;;16.97;86.46;100618.97;5013687;28;20443;-70
2021/09/03 08:11:35;;;;;;;13.82;8.73;;;;;;;17.17;85.92;100632.69;5013708;28;20069;-70
2021/09/03 08:14:01;;;;;;;21.55;9.45;;;;;;;17.33;85.54;100630.44;5010285;28;20069;-70
2021/09/03 08:16:28;;;;;;;21.58;8.88;;;;;;;17.33;86.33;100624.22;4995293;28;20127;-70
2021/09/03 08:18:55;;;;;;;14.18;9.75;;;;;;;17.39;86.95;100618.31;4995046;28;20090;-70
2021/09/03 08:21:22;;;;;;;12.48;9.20;;;;;;;17.28;88.58;100607.53;4997770;28;20045;-70
2021/09/03 08:23:48;;;;;;;16.13;10.75;;;;;;;17.38;87.55;100616.59;5013823;28;20054;-68
2021/09/03 08:26:15;;;;;;;18.73;10.95;;;;;;;17.42;87.43;100609.94;5018710;28;20426;-70
2021/09/03 08:28:42;;;;;;;21.13;11.07;;;;;;;17.46;89.46;100615.94;5016004;28;20133;-70
2021/09/03 08:31:09;;;;;;;15.30;10.77;;;;;;;17.51;88.88;100620.00;5013520;28;20128;-70
2021/09/03 08:33:35;;;;;;;18.67;10.98;;;;;;;17.56;88.89;100618.72;5013885;28;20041;-70
2021/09/03 08:36:02;;;;;;;17.73;10.43;;;;;;;17.77;88.31;100621.47;5013162;28;20080;-69
2021/09/03 08:38:29;;;;;;;20.38;11.80;;;;;;;18.00;86.96;100630.34;5013035;28;20342;-70
2021/09/03 08:40:57;;;;;;;17.30;10.48;;;;;;;17.99;87.09;100612.44;5000397;28;20432;-72
2021/09/03 08:43:25;;;;;;;18.75;10.93;;;;;;;17.94;88.35;100617.34;5012202;28;20313;-71
2021/09/03 08:45:52;;;;;;;18.80;11.07;;;;;;;18.05;85.33;100622.72;5012926;28;20045;-71
2021/09/03 08:48:21;;;;;;;11.85;9.35;;;;;;;18.35;82.08;100616.66;5013575;28;20054;-71
2021/09/03 08:50:51;;;;;;;14.52;9.00;;;;;;;18.31;83.23;100624.19;5014135;28;20053;-72
2021/09/03 08:53:21;;;;;;;16.13;8.30;;;;;;;18.31;84.67;100625.00;5009175;28;20058;-70
2021/09/03 08:55:51;;;;;;;13.13;10.25;;;;;;;18.49;82.43;100624.41;5018551;28;20076;-68
2021/09/03 08:58:18;;;;;;;16.40;10.75;;;;;;;18.40;82.54;100617.09;5017633;28;20071;-73
2021/09/03 09:01:01;;;;;;;14.02;10.80;;;;;;;18.57;80.83;100621.03;5017939;28;20049;-71
2021/09/03 09:03:37;;;;;;;17.30;9.75;;;;;;;18.57;82.54;100621.88;5017629;28;20149;-72
2021/09/03 09:06:05;;;;;;;14.50;9.52;;;;;;;18.57;82.30;100630.00;5014285;28;20089;-74
2021/09/03 09:08:33;;;;;;;15.32;10.70;;;;;;;18.68;80.10;100622.81;5013848;28;20066;-74
2021/09/03 09:11:04;;;;;;;18.05;10.13;;;;;;;18.76;79.57;100624.81;5011468;28;20046;-71
2021/09/03 09:13:40;;;;;;;14.93;10.32;;;;;;;18.91;79.07;100620.72;5020533;28;20127;-69
2021/09/03 09:16:18;;;;;;;15.90;9.45;;;;;;;18.99;78.15;100620.06;5032728;28;20049;-73
2021/09/03 09:18:51;;;;;;;15.05;9.05;;;;;;;19.13;78.70;100614.28;5017590;28;20363;-72
2021/09/03 09:21:22;;;;;;;12.23;7.85;;;;;;;19.21;77.96;100610.03;5017806;28;20374;-72
2021/09/03 09:24:08;;;;;;;11.43;8.13;;;;;;;19.29;78.97;100614.75;5012828;28;20046;-69
2021/09/03 09:26:44;;;;;;;19.42;9.05;;;;;;;19.29;78.22;100604.81;5016802;28;20431;-69
2021/09/03 09:29:18;;;;;;;17.73;9.23;;;;;;;19.39;77.72;100611.06;5016466;28;20050;-69
2021/09/03 09:31:47;;;;;;;15.20;10.15;;;;;;;19.65;74.63;100609.66;5014964;28;20090;-71
2021/09/03 09:34:29;;;;;;;13.38;8.63;;;;;;;19.61;76.24;100611.78;5010287;28;20061;-72
2021/09/03 09:36:59;;;;;;;15.05;8.25;;;;;;;19.62;76.47;100607.25;5017576;28;20056;-73
2021/09/03 09:39:27;;;;;;;15.18;8.00;;;;;;;19.71;74.85;100602.84;5017325;28;20042;-73
2021/09/03 09:42:21;;;;;;;15.48;8.38;;;;;;;19.88;75.23;100601.25;5009844;28;20430;-73
2021/09/03 09:45:11;;;;;;;11.77;7.90;;;;;;;19.98;75.10;100593.16;5012542;28;20065;-74
2021/09/03 09:47:40;;;;;;;13.82;8.07;;;;;;;20.05;72.91;100592.41;5008612;28;20080;-73
2021/09/03 09:50:32;;;;;;;14.23;8.15;;;;;;;20.22;73.28;100582.66;5017192;28;20046;-72
2021/09/03 09:53:10;;;;;;;15.23;7.75;;;;;;;20.29;72.88;100576.66;5017251;28;20057;-74
2021/09/03 09:55:38;;;;;;;12.73;7.68;;;;;;;20.27;73.53;100575.97;5015616;28;20050;-76
2021/09/03 09:58:05;;;;;;;13.88;7.97;;;;;;;20.46;72.45;100578.63;5016167;28;20351;-75
2021/09/03 10:00:35;;;;;;;17.02;8.57;;;;;;;20.62;72.64;100580.69;5017090;28;20045;-74
2021/09/03 10:03:03;;;;;;;;;;;;;;;20.70;72.09;100587.22;5016380;28;20428;-71
2021/09/03 10:05:32;;;;;;;10.75;7.18;;;;;;;20.85;71.01;100569.47;5007495;28;20311;-73
2021/09/03 10:07:59;;;;;;;15.70;7.00;;;;;;;20.97;69.66;100575.53;5018203;28;20053;-67
2021/09/03 10:10:26;;;;;;;11.13;6.70;;;;;;;21.06;69.60;100578.34;5015841;28;20049;-72
2021/09/03 10:12:54;;;;;;;13.80;6.88;;;;;;;21.15;68.33;100580.16;5015523;28;20048;-72
2021/09/03 10:15:21;;;;;;;11.20;6.80;;;;;;;21.21;69.94;100560.53;5016714;28;20050;-74
2021/09/03 10:17:49;;;;;;;15.23;6.90;;;;;;;21.29;67.33;100576.91;5016129;28;20046;-74
2021/09/03 10:20:16;;;;;;;15.82;6.63;;;;;;;21.34;67.51;100572.91;5016999;28;20061;-74
2021/09/03 10:22:46;;;;;;;9.27;6.85;;;;;;;21.40;66.48;100572.25;5016006;28;20108;-74
2021/09/03 10:25:14;;;;;;;17.27;7.10;;;;;;;21.40;66.67;100564.09;5016136;28;20054;-80
2021/09/03 10:28:01;;;;;;;10.85;6.68;;;;;;;21.57;67.45;100565.97;5016066;28;20080;-73
2021/09/03 10:30:28;;;;;;;11.40;7.10;;;;;;;21.72;65.69;100556.47;5015892;28;20048;-76
2021/09/03 10:33:10;;;;;;;9.45;6.85;;;;;;;21.75;66.20;100559.72;5016735;28;20066;-75
2021/09/03 10:35:37;;;;;;;13.95;6.40;;;;;;;21.89;65.69;100557.44;5015219;28;20045;-73
2021/09/03 10:38:27;;;;;;;12.00;5.97;;;;;;;22.04;64.35;100564.00;5002648;28;20435;-76
2021/09/03 10:40:55;;;;;;;12.27;6.32;;;;;;;22.08;64.50;100553.66;4998174;28;20125;-74
2021/09/03 10:43:42;;;;;;;15.38;6.75;;;;;;;22.23;64.38;100562.09;5018901;28;20201;-76
2021/09/03 10:46:11;;;;;;;15.52;6.60;;;;;;;22.23;62.47;100560.19;5010354;28;20038;-75
2021/09/03 10:48:38;;;;;;;14.45;7.15;;;;;;;22.27;61.33;100547.13;5011272;28;20393;-76
2021/09/03 10:51:05;;;;;;;10.40;5.65;;;;;;;22.39;62.92;100556.72;5015401;28;20052;-74
2021/09/03 10:53:35;;;;;;;8.65;6.00;;;;;;;22.49;63.44;100556.59;5015279;28;20050;-74
2021/09/03 10:56:12;;;;;;;14.55;5.82;;;;;;;22.59;62.35;100556.50;5028800;28;20046;-76
2021/09/03 10:58:47;;;;;;;10.13;6.35;;;;;;;22.73;61.86;100554.19;5014304;28;20053;-74
2021/09/03 11:01:20;;;;;;;11.65;6.45;;;;;;;22.77;57.76;100552.84;5014686;28;20042;-75
2021/09/03 11:03:47;;;;;;;14.25;6.18;;;;;;;22.78;58.37;100536.34;5015015;28;20053;-73
2021/09/03 11:06:23;;;;;;;8.70;5.70;;;;;;;22.82;59.68;100534.16;5014154;28;20037;-76
2021/09/03 11:08:54;;;;;;;11.55;5.90;;;;;;;22.95;58.18;100532.81;5015510;28;20108;-72
2021/09/03 11:11:27;;;;;;;8.15;5.80;;;;;;;23.08;59.81;100521.47;5013034;28;20144;-74